Terra Ceia, FL

10:54 PM EDT on June 30, 2015 (GMT -0400)
Bay Colony | | Change Station
CLOSE
Current Station
Personal Weather Station
Location: Palmetto, FL
Elevation: 12 ft
Nearby Weather Stations

Elev 12 ft 27.56 °N, 82.57 °W | Updated 2 minutes ago

Clear
Clear
84.7 °F
Feels Like 96 °F
N
6.0
Wind Variable Wind from NNW
Gusts 9.0 mph

Today
High -- | Low -- °F
--% Chance of Precip.
Yesterday
High -- | Low -- °F
Precip. -- in
6:38 AM 8:29 PM
Waxing Gibbous, 99% visible
Pressure 30.11 in
Visibility 10.0 miles
Clouds Clear
Heat Index 96 °F
Dew Point 78 °F
Humidity 80%
Rainfall in
Snow Depth Not available.
UV 0 out of 12
Pollen 2.00 out of 12
Air Quality Not available.
Flu Activity Sporadic
METAR KSRQ 010153Z AUTO 31005KT 10SM CLR 28/24 A3011 RMK AO2 SLP195 T02780239

More Conditions Fewer Conditions

Pressure 30.11 in
Visibility 10.0 miles
Clouds Clear
Heat Index 96 °F
Dew Point 78 °F
Humidity 80%
Rainfall in
Snow Depth Not available.
UV 0 out of 12
Pollen 2.00 out of 12
Air Quality Not available.
Flu Activity Sporadic
METAR KSRQ 010153Z AUTO 31005KT 10SM CLR 28/24 A3011 RMK AO2 SLP195 T02780239

More Conditions Fewer Conditions

10-Day Weather Forecast

×

Almanac

Astronomy

Jun. 30, 2015 Rise Set
Actual Time
Civil Twilight
Nautical Twilight
Astronomical Twilight
Moon
Length of Visible Light
Length of Day
Tomorrow will be .
, % of the Moon is Illuminated

Today's Extremes

State Highs State Lows

Community

WunderPhotos

Upload Photos

1,834,111 photos uploaded!

WunderBlogs® & News

Nearby

Air Quality

  Air Quality AQ Index Pollutant
Not available.

Snow Depth

Station Depth Elevation

Earthquake Activity

City Distance Mag. Time & Date
Minimum magnitude displayed is 2.5.

Coastal Water Temperatures

Place Temperature

Stations

Nearby Weather Stations

Station Location Temp. Windchill Dew Point Humidity Wind Precip. Elev Updated Type